createdAt,value
2022-09-06T00:01:01.213Z,9.87
2022-09-06T00:03:28.265Z,9.91
2022-09-06T00:05:55.436Z,9.97
2022-09-06T00:08:21.954Z,10.00
2022-09-06T00:10:48.440Z,10.01
2022-09-06T00:13:15.013Z,9.96
2022-09-06T00:15:41.654Z,9.84
2022-09-06T00:18:08.781Z,9.88
2022-09-06T00:20:41.350Z,9.86
2022-09-06T00:23:08.539Z,9.72
2022-09-06T00:25:35.495Z,9.72
2022-09-06T00:28:06.036Z,9.71
2022-09-06T00:30:33.479Z,9.87
2022-09-06T00:33:00.046Z,10.02
2022-09-06T00:35:29.331Z,10.02
2022-09-06T00:38:04.431Z,9.86
2022-09-06T00:40:35.226Z,9.75
2022-09-06T00:43:01.810Z,9.66
2022-09-06T00:45:28.739Z,9.51
2022-09-06T00:47:55.665Z,9.67
2022-09-06T00:50:22.473Z,9.46
2022-09-06T00:52:50.278Z,9.53
2022-09-06T00:55:20.042Z,9.64
2022-09-06T00:57:51.338Z,9.64
2022-09-06T01:00:19.619Z,9.52
2022-09-06T01:02:46.394Z,9.61
2022-09-06T01:05:13.774Z,9.55
2022-09-06T01:08:13.019Z,9.66
2022-09-06T01:11:04.042Z,9.62
2022-09-06T01:13:51.554Z,9.68
2022-09-06T01:16:28.193Z,9.58
2022-09-06T01:19:32.283Z,9.51
2022-09-06T01:22:01.802Z,9.55
2022-09-06T01:24:48.531Z,9.58
2022-09-06T01:27:52.632Z,9.62
2022-09-06T01:30:19.944Z,9.71
2022-09-06T01:33:17.275Z,9.75
2022-09-06T01:35:57.673Z,9.64
2022-09-06T01:38:24.289Z,9.85
2022-09-06T01:40:50.757Z,9.84
2022-09-06T01:43:24.193Z,9.84
2022-09-06T01:45:51.049Z,9.90
2022-09-06T01:48:28.789Z,9.94
2022-09-06T01:51:15.589Z,9.72
2022-09-06T01:53:57.339Z,9.67
2022-09-06T01:56:35.941Z,9.85
2022-09-06T01:59:27.187Z,9.86
2022-09-06T02:02:07.746Z,9.99
2022-09-06T02:04:46.703Z,9.96
2022-09-06T02:07:26.004Z,9.96
2022-09-06T02:10:16.078Z,9.91
2022-09-06T02:12:45.847Z,9.86
2022-09-06T02:15:19.128Z,10.17
2022-09-06T02:17:53.653Z,10.17
2022-09-06T02:20:25.238Z,10.12
2022-09-06T02:22:53.603Z,10.15
2022-09-06T02:25:32.433Z,10.33
2022-09-06T02:27:59.004Z,10.36
2022-09-06T02:30:25.696Z,10.51
2022-09-06T02:33:05.751Z,10.58
2022-09-06T02:35:32.577Z,10.62
2022-09-06T02:37:59.259Z,10.58
2022-09-06T02:40:25.935Z,10.57
2022-09-06T02:42:54.208Z,10.70
2022-09-06T02:45:20.678Z,10.63
2022-09-06T02:47:47.368Z,10.81
2022-09-06T02:50:15.333Z,10.86
2022-09-06T02:52:41.910Z,10.77
2022-09-06T02:55:11.672Z,10.94
2022-09-06T02:57:38.270Z,10.94
2022-09-06T03:00:05.346Z,11.06
2022-09-06T03:02:31.890Z,11.39
2022-09-06T03:04:59.412Z,11.43
2022-09-06T03:07:25.943Z,11.35
2022-09-06T03:09:52.491Z,11.20
2022-09-06T03:12:18.991Z,11.11
2022-09-06T03:14:45.508Z,11.13
2022-09-06T03:17:12.020Z,11.11
2022-09-06T03:19:38.531Z,11.26
2022-09-06T03:22:05.056Z,11.56
2022-09-06T03:24:33.789Z,11.53
2022-09-06T03:27:00.513Z,11.55
2022-09-06T03:29:27.015Z,11.51
2022-09-06T03:31:53.651Z,11.57
2022-09-06T03:34:21.571Z,11.43
2022-09-06T03:36:48.117Z,11.41
2022-09-06T03:39:16.740Z,11.57
2022-09-06T03:41:44.473Z,11.50
2022-09-06T03:44:11.301Z,11.48
2022-09-06T03:46:38.421Z,11.53
2022-09-06T03:49:05.012Z,11.51
2022-09-06T03:51:31.703Z,11.41
2022-09-06T03:53:58.776Z,11.33
2022-09-06T03:56:25.310Z,11.38
2022-09-06T03:58:51.971Z,11.33
2022-09-06T04:01:18.602Z,11.34
2022-09-06T04:03:45.403Z,11.39
2022-09-06T04:06:11.999Z,11.31
2022-09-06T04:08:39.363Z,11.30
2022-09-06T04:11:06.597Z,11.42
2022-09-06T04:13:33.746Z,11.63
2022-09-06T04:16:00.771Z,11.59
2022-09-06T04:18:27.379Z,11.71
2022-09-06T04:20:56.247Z,11.79
2022-09-06T04:23:25.372Z,11.93
2022-09-06T04:25:53.867Z,11.69
2022-09-06T04:28:22.375Z,11.63
2022-09-06T04:30:53.287Z,11.61
2022-09-06T04:33:20.597Z,11.72
2022-09-06T04:35:54.248Z,11.84
2022-09-06T04:38:20.817Z,11.92
2022-09-06T04:40:47.358Z,12.00
2022-09-06T04:43:14.347Z,12.01
2022-09-06T04:45:41.692Z,12.08
2022-09-06T04:48:08.586Z,12.03
2022-09-06T04:50:35.357Z,12.00
2022-09-06T04:53:02.078Z,12.13
2022-09-06T04:55:31.475Z,12.16
2022-09-06T04:58:01.376Z,12.16
2022-09-06T05:00:28.566Z,12.00
2022-09-06T05:02:55.096Z,12.04
2022-09-06T05:05:22.591Z,12.01
2022-09-06T05:07:52.971Z,12.10
2022-09-06T05:10:19.999Z,12.25
2022-09-06T05:12:55.189Z,12.26
2022-09-06T05:15:23.851Z,12.34
2022-09-06T05:17:50.505Z,12.64
2022-09-06T05:20:17.927Z,12.76
2022-09-06T05:22:52.197Z,12.51
2022-09-06T05:25:18.806Z,12.42
2022-09-06T05:27:45.404Z,12.27
2022-09-06T05:30:12.657Z,12.45
2022-09-06T05:32:39.166Z,12.74
2022-09-06T05:35:05.892Z,12.90
2022-09-06T05:37:33.465Z,13.07
2022-09-06T05:40:01.875Z,13.13
2022-09-06T05:42:28.482Z,13.11
2022-09-06T05:44:55.005Z,13.13
2022-09-06T05:47:21.597Z,13.01
2022-09-06T05:49:48.160Z,13.10
2022-09-06T05:52:14.752Z,13.08
2022-09-06T05:54:41.667Z,13.04
2022-09-06T05:57:10.251Z,12.87
2022-09-06T05:59:37.298Z,12.80
2022-09-06T06:02:07.183Z,12.77
2022-09-06T06:04:35.319Z,12.79
2022-09-06T06:07:01.912Z,12.94
2022-09-06T06:09:28.469Z,12.98
2022-09-06T06:11:55.012Z,13.07
2022-09-06T06:14:21.530Z,13.06
2022-09-06T06:16:51.153Z,13.18
2022-09-06T06:19:17.748Z,13.22
2022-09-06T06:21:44.260Z,13.30
2022-09-06T06:24:10.978Z,13.51
2022-09-06T06:26:37.893Z,13.70
2022-09-06T06:29:08.144Z,13.90
2022-09-06T06:31:35.685Z,13.86
2022-09-06T06:34:04.083Z,13.97
2022-09-06T06:36:33.671Z,14.30
2022-09-06T06:39:01.207Z,14.26
2022-09-06T06:41:30.363Z,14.71
2022-09-06T06:43:59.193Z,14.70
2022-09-06T06:46:28.298Z,14.96
2022-09-06T06:48:55.481Z,14.83
2022-09-06T06:51:27.353Z,15.33
2022-09-06T06:53:54.336Z,14.98
2022-09-06T06:56:28.098Z,15.58
2022-09-06T06:58:58.020Z,15.91
2022-09-06T07:01:30.778Z,16.04
2022-09-06T07:03:58.176Z,15.96
2022-09-06T07:09:12.904Z,15.96
2022-09-06T07:11:41.874Z,16.37
2022-09-06T07:14:09.872Z,16.69
2022-09-06T07:16:36.546Z,16.07
2022-09-06T07:19:03.421Z,16.50
2022-09-06T07:21:37.208Z,16.78
2022-09-06T07:24:08.611Z,16.70
2022-09-06T07:26:36.645Z,16.85
2022-09-06T07:29:04.930Z,16.87
2022-09-06T07:34:19.297Z,16.84
2022-09-06T07:36:45.978Z,17.17
2022-09-06T07:39:19.931Z,17.24
2022-09-06T07:41:46.590Z,17.40
2022-09-06T07:44:13.155Z,17.94
2022-09-06T07:46:39.829Z,17.54
2022-09-06T07:49:07.444Z,17.82
2022-09-06T07:51:35.646Z,18.19
2022-09-06T07:54:29.294Z,17.58
2022-09-06T07:56:51.362Z,17.45
2022-09-06T07:59:18.036Z,17.64
2022-09-06T08:01:47.543Z,17.79
2022-09-06T08:04:16.158Z,17.68
2022-09-06T08:09:35.162Z,17.60
2022-09-06T08:12:06.724Z,17.82
2022-09-06T08:14:33.842Z,17.64
2022-09-06T08:17:00.897Z,17.35
2022-09-06T08:19:28.145Z,17.92
2022-09-06T08:21:55.575Z,17.86
2022-09-06T08:24:22.116Z,18.04
2022-09-06T08:26:48.600Z,17.76
2022-09-06T08:29:15.490Z,17.43
2022-09-06T08:31:44.779Z,17.75
2022-09-06T08:34:15.200Z,17.63
2022-09-06T08:36:42.294Z,17.48
2022-09-06T08:39:10.134Z,18.10
2022-09-06T08:42:00.340Z,18.26
2022-09-06T08:44:56.362Z,18.52
2022-09-06T08:47:24.145Z,19.13
2022-09-06T08:50:07.250Z,19.27
2022-09-06T08:52:34.055Z,19.49
2022-09-06T08:55:19.115Z,19.51
2022-09-06T08:58:21.712Z,19.21
2022-09-06T09:00:51.750Z,18.63
2022-09-06T09:03:21.824Z,18.56
2022-09-06T09:05:52.535Z,18.69
2022-09-06T09:08:27.804Z,18.51
2022-09-06T09:11:21.432Z,18.96
2022-09-06T09:13:55.846Z,18.90
2022-09-06T09:16:22.791Z,19.29
2022-09-06T09:19:02.003Z,19.53
2022-09-06T09:21:32.137Z,19.67
2022-09-06T09:24:03.756Z,19.26
2022-09-06T09:26:34.663Z,19.71
2022-09-06T09:29:06.996Z,20.04
2022-09-06T09:31:39.410Z,20.15
2022-09-06T09:34:06.600Z,20.07
2022-09-06T09:36:33.516Z,19.41
2022-09-06T09:39:00.297Z,20.31
2022-09-06T09:41:33.988Z,18.56
2022-09-06T09:44:04.869Z,18.32
2022-09-06T09:46:36.230Z,18.38
2022-09-06T09:49:11.015Z,18.69
2022-09-06T09:51:38.970Z,19.15
2022-09-06T09:54:08.038Z,19.62
2022-09-06T09:56:52.878Z,20.39
2022-09-06T09:59:26.375Z,20.39
2022-09-06T10:02:00.119Z,20.67
2022-09-06T10:04:47.479Z,21.13
2022-09-06T10:07:23.531Z,21.25
2022-09-06T10:10:01.519Z,21.37
2022-09-06T10:12:38.915Z,21.47
2022-09-06T10:15:07.788Z,21.14
2022-09-06T10:17:39.578Z,21.36
2022-09-06T10:20:08.643Z,21.60
2022-09-06T10:22:41.525Z,20.98
2022-09-06T10:25:29.999Z,21.03
2022-09-06T10:28:20.064Z,20.86
2022-09-06T10:31:09.414Z,20.56
2022-09-06T10:33:51.243Z,20.80
2022-09-06T10:36:21.123Z,20.52
2022-09-06T10:39:03.897Z,19.89
2022-09-06T10:42:15.409Z,20.27
2022-09-06T10:44:58.569Z,20.27
2022-09-06T10:47:33.240Z,19.95
2022-09-06T10:50:00.929Z,20.16
2022-09-06T10:52:37.012Z,20.62
2022-09-06T10:55:06.374Z,21.00
2022-09-06T11:00:49.225Z,20.17
2022-09-06T11:06:20.675Z,19.91
2022-09-06T11:09:07.040Z,19.55
2022-09-06T11:11:41.674Z,19.57
2022-09-06T11:14:12.976Z,19.35
2022-09-06T11:16:50.539Z,18.99
2022-09-06T11:19:23.072Z,19.11
2022-09-06T11:21:57.363Z,19.69
2022-09-06T11:24:56.727Z,20.34
2022-09-06T11:27:35.862Z,20.56
2022-09-06T11:30:03.876Z,20.86
2022-09-06T11:32:52.535Z,21.33
2022-09-06T11:35:25.850Z,21.10
2022-09-06T11:38:04.738Z,21.27
2022-09-06T11:40:41.509Z,21.75
2022-09-06T11:43:11.149Z,21.67
2022-09-06T11:45:48.511Z,22.19
2022-09-06T11:48:24.417Z,22.05
2022-09-06T11:50:53.902Z,22.19
2022-09-06T11:53:25.390Z,21.37
2022-09-06T11:56:12.269Z,21.58
2022-09-06T11:58:41.590Z,21.82
2022-09-06T12:01:14.877Z,21.33
2022-09-06T12:04:09.704Z,21.51
2022-09-06T12:06:42.826Z,21.31
2022-09-06T12:09:36.388Z,21.52
2022-09-06T12:12:03.738Z,21.97
2022-09-06T12:14:47.282Z,22.51
2022-09-06T12:17:14.857Z,22.39
2022-09-06T12:20:08.064Z,22.28
2022-09-06T12:22:47.815Z,22.65
2022-09-06T12:25:44.595Z,21.84
2022-09-06T12:28:24.897Z,22.69
2022-09-06T12:30:51.512Z,22.56
2022-09-06T12:33:32.794Z,22.70
2022-09-06T12:36:30.201Z,22.32
2022-09-06T12:39:33.809Z,22.52
2022-09-06T12:42:11.792Z,22.99
2022-09-06T12:44:45.053Z,22.92
2022-09-06T12:47:11.513Z,22.42
2022-09-06T12:49:38.023Z,22.61
2022-09-06T12:52:16.120Z,22.82
2022-09-06T12:54:49.663Z,22.84
2022-09-06T12:57:24.704Z,22.89
2022-09-06T12:59:56.216Z,22.49
2022-09-06T13:02:43.499Z,22.17
2022-09-06T13:05:12.332Z,22.30
2022-09-06T13:07:56.530Z,22.01
2022-09-06T13:10:26.247Z,22.18
2022-09-06T13:12:53.777Z,22.24
2022-09-06T13:15:22.551Z,22.38
2022-09-06T13:17:51.509Z,22.14
2022-09-06T13:20:30.564Z,22.56
2022-09-06T13:23:11.116Z,22.59
2022-09-06T13:25:56.921Z,22.25
2022-09-06T13:28:33.977Z,22.46
2022-09-06T13:31:20.937Z,22.52
2022-09-06T13:33:59.862Z,22.46
2022-09-06T13:36:31.016Z,22.67
2022-09-06T13:38:58.011Z,22.57
2022-09-06T13:41:24.522Z,22.35
2022-09-06T13:44:20.160Z,22.03
2022-09-06T13:46:56.933Z,21.94
2022-09-06T13:49:23.895Z,22.29
2022-09-06T13:51:52.103Z,21.94
2022-09-06T13:54:20.475Z,21.61
2022-09-06T13:56:48.476Z,21.33
2022-09-06T13:59:17.157Z,21.12
2022-09-06T14:01:46.789Z,21.56
2022-09-06T14:04:21.376Z,21.69
2022-09-06T14:06:49.002Z,21.32
2022-09-06T14:09:20.130Z,21.39
2022-09-06T14:11:49.791Z,21.34
2022-09-06T14:14:18.005Z,21.21
2022-09-06T14:16:47.695Z,21.18
2022-09-06T14:19:15.116Z,21.21
2022-09-06T14:21:41.814Z,21.22
2022-09-06T14:24:08.348Z,21.09
2022-09-06T14:26:38.837Z,21.13
2022-09-06T14:29:05.628Z,21.36
2022-09-06T14:31:34.936Z,21.33
2022-09-06T14:34:02.748Z,21.45
2022-09-06T14:36:31.128Z,21.23
2022-09-06T14:38:59.685Z,21.38
2022-09-06T14:41:26.945Z,21.34
2022-09-06T14:43:55.267Z,21.06
2022-09-06T14:46:23.165Z,20.89
2022-09-06T14:48:56.547Z,20.84
2022-09-06T14:51:23.946Z,20.75
2022-09-06T14:53:53.434Z,20.74
2022-09-06T14:56:20.696Z,20.95
2022-09-06T14:58:47.472Z,20.81
2022-09-06T15:01:16.850Z,20.88
2022-09-06T15:04:07.267Z,20.48
2022-09-06T15:06:34.821Z,20.33
2022-09-06T15:09:01.677Z,20.40
2022-09-06T15:11:36.554Z,20.26
2022-09-06T15:14:06.254Z,19.49
2022-09-06T15:16:37.670Z,19.30
2022-09-06T15:19:12.595Z,19.00
2022-09-06T15:21:39.159Z,19.02
2022-09-06T15:24:11.533Z,18.68
2022-09-06T15:26:39.435Z,18.48
2022-09-06T15:29:25.591Z,18.00
2022-09-06T15:31:52.975Z,18.02
2022-09-06T15:34:29.157Z,17.98
2022-09-06T15:36:59.560Z,18.00
2022-09-06T15:39:26.071Z,17.93
2022-09-06T15:41:52.668Z,17.81
2022-09-06T15:44:20.820Z,17.72
2022-09-06T15:46:57.601Z,17.48
2022-09-06T15:49:30.913Z,17.23
2022-09-06T15:52:01.832Z,17.21
2022-09-06T15:54:47.487Z,16.96
2022-09-06T15:57:16.485Z,16.90
2022-09-06T15:59:43.763Z,16.96
2022-09-06T16:02:17.684Z,16.90
2022-09-06T16:04:45.687Z,17.01
2022-09-06T16:07:12.604Z,17.03
2022-09-06T16:09:39.293Z,16.80
2022-09-06T16:12:06.216Z,16.81
2022-09-06T16:14:32.783Z,16.68
2022-09-06T16:16:59.354Z,16.70
2022-09-06T16:19:26.319Z,16.82
2022-09-06T16:21:53.187Z,16.85
2022-09-06T16:24:19.881Z,16.42
2022-09-06T16:26:46.782Z,16.63
2022-09-06T16:29:15.210Z,16.41
2022-09-06T16:31:42.163Z,16.25
2022-09-06T16:34:09.772Z,16.53
2022-09-06T16:36:36.728Z,16.36
2022-09-06T16:39:03.859Z,16.57
2022-09-06T16:41:39.444Z,16.27
2022-09-06T16:44:10.406Z,16.15
2022-09-06T16:46:36.953Z,16.32
2022-09-06T16:49:04.515Z,16.04
2022-09-06T16:51:31.432Z,16.04
2022-09-06T16:53:58.723Z,16.02
2022-09-06T16:56:27.393Z,16.17
2022-09-06T16:58:56.478Z,16.02
2022-09-06T17:01:27.864Z,15.99
2022-09-06T17:03:54.664Z,16.03
2022-09-06T17:06:21.873Z,15.96
2022-09-06T17:08:52.404Z,15.92
2022-09-06T17:11:22.300Z,15.93
2022-09-06T17:13:50.642Z,16.14
2022-09-06T17:16:39.384Z,15.92
2022-09-06T17:19:06.953Z,15.79
2022-09-06T17:21:34.134Z,15.71
2022-09-06T17:24:03.181Z,15.74
2022-09-06T17:26:30.859Z,15.62
2022-09-06T17:28:57.550Z,15.66
2022-09-06T17:31:26.419Z,15.64
2022-09-06T17:33:53.481Z,15.77
2022-09-06T17:36:27.652Z,15.74
2022-09-06T17:39:07.275Z,15.52
2022-09-06T17:41:38.863Z,15.31
2022-09-06T17:44:12.766Z,15.66
2022-09-06T17:46:51.935Z,15.68
2022-09-06T17:49:24.152Z,15.57
2022-09-06T17:51:52.347Z,15.58
2022-09-06T17:54:19.292Z,15.31
2022-09-06T17:56:45.827Z,15.26
2022-09-06T17:59:14.161Z,15.23
2022-09-06T18:01:43.849Z,15.53
2022-09-06T18:04:14.231Z,15.30
2022-09-06T18:06:42.732Z,15.17
2022-09-06T18:09:11.579Z,15.17
2022-09-06T18:11:39.822Z,14.99
2022-09-06T18:14:13.191Z,14.87
2022-09-06T18:19:46.344Z,14.57
2022-09-06T18:22:19.959Z,14.69
2022-09-06T18:24:46.631Z,14.52
2022-09-06T18:27:13.139Z,14.44
2022-09-06T18:29:39.637Z,14.47
2022-09-06T18:32:07.535Z,14.55
2022-09-06T18:34:34.896Z,14.63
2022-09-06T18:37:02.676Z,14.64
2022-09-06T18:39:29.463Z,14.59
2022-09-06T18:42:02.171Z,14.72
2022-09-06T18:44:33.409Z,14.50
2022-09-06T18:47:06.059Z,14.48
2022-09-06T18:49:34.091Z,14.66
2022-09-06T18:52:04.542Z,14.50
2022-09-06T18:54:34.082Z,14.52
2022-09-06T18:57:03.956Z,14.47
2022-09-06T18:59:30.527Z,14.35
2022-09-06T19:01:57.506Z,14.36
2022-09-06T19:04:24.221Z,14.29
2022-09-06T19:06:53.668Z,14.12
2022-09-06T19:09:20.627Z,13.63
2022-09-06T19:11:51.258Z,13.23
2022-09-06T19:14:17.965Z,12.99
2022-09-06T19:16:52.535Z,12.85
2022-09-06T19:19:21.911Z,13.09
2022-09-06T19:21:48.497Z,13.05
2022-09-06T19:24:17.681Z,13.11
2022-09-06T19:26:44.914Z,13.23
2022-09-06T19:29:15.516Z,13.38
2022-09-06T19:31:42.711Z,13.42
2022-09-06T19:34:09.509Z,13.53
2022-09-06T19:36:36.306Z,13.44
2022-09-06T19:39:06.535Z,13.32
2022-09-06T19:41:42.201Z,13.40
2022-09-06T19:44:10.570Z,13.48
2022-09-06T19:46:37.700Z,13.49
2022-09-06T19:49:08.524Z,13.49
2022-09-06T19:51:36.476Z,13.50
2022-09-06T19:54:03.751Z,13.49
2022-09-06T19:56:34.212Z,13.51
2022-09-06T19:59:12.127Z,13.47
2022-09-06T20:01:40.526Z,13.43
2022-09-06T20:04:08.547Z,13.52
2022-09-06T20:06:35.910Z,13.51
2022-09-06T20:09:04.976Z,13.42
2022-09-06T20:11:33.144Z,13.31
2022-09-06T20:14:03.640Z,13.31
2022-09-06T20:16:36.035Z,13.13
2022-09-06T20:19:08.476Z,13.13
2022-09-06T20:21:35.015Z,13.00
2022-09-06T20:24:03.773Z,13.07
2022-09-06T20:26:31.942Z,13.21
2022-09-06T20:29:07.720Z,13.15
2022-09-06T20:31:37.288Z,12.99
2022-09-06T20:34:05.198Z,12.73
2022-09-06T20:36:32.067Z,12.56
2022-09-06T20:38:59.215Z,12.53
2022-09-06T20:41:27.171Z,12.50
2022-09-06T20:43:58.265Z,12.48
2022-09-06T20:46:28.971Z,12.41
2022-09-06T20:49:01.913Z,12.35
2022-09-06T20:51:28.495Z,12.35
2022-09-06T20:53:57.142Z,12.30
2022-09-06T20:56:28.964Z,12.32
2022-09-06T20:59:00.766Z,12.22
2022-09-06T21:01:29.716Z,11.82
2022-09-06T21:03:59.354Z,11.63
2022-09-06T21:06:27.308Z,11.62
2022-09-06T21:08:54.301Z,11.70
2022-09-06T21:11:20.776Z,11.68
2022-09-06T21:13:58.424Z,11.83
2022-09-06T21:16:27.760Z,11.58
2022-09-06T21:18:58.909Z,11.68
2022-09-06T21:21:26.463Z,11.80
2022-09-06T21:23:53.332Z,11.68
2022-09-06T21:26:19.809Z,11.42
2022-09-06T21:28:47.381Z,11.40
2022-09-06T21:31:22.234Z,11.18
2022-09-06T21:33:52.721Z,11.34
2022-09-06T21:36:24.620Z,11.22
2022-09-06T21:38:55.642Z,11.34
2022-09-06T21:41:23.155Z,11.29
2022-09-06T21:43:53.645Z,11.19
2022-09-06T21:46:21.627Z,11.27
2022-09-06T21:48:49.876Z,11.16
2022-09-06T21:51:18.973Z,11.13
2022-09-06T21:53:47.955Z,10.88
2022-09-06T21:56:15.623Z,10.64
2022-09-06T21:58:44.178Z,10.40
2022-09-06T22:01:11.047Z,10.44
2022-09-06T22:03:40.248Z,10.43
2022-09-06T22:06:10.876Z,10.47
2022-09-06T22:08:37.753Z,10.65
2022-09-06T22:11:12.391Z,10.67
2022-09-06T22:13:39.828Z,10.24
2022-09-06T22:16:07.991Z,10.27
2022-09-06T22:18:34.894Z,10.37
2022-09-06T22:21:10.550Z,10.45
2022-09-06T22:23:38.943Z,10.40
2022-09-06T22:26:07.523Z,10.48
2022-09-06T22:28:34.287Z,10.40
2022-09-06T22:31:00.936Z,10.37
2022-09-06T22:33:27.842Z,10.39
2022-09-06T22:35:55.562Z,10.36
2022-09-06T22:38:22.252Z,10.30
2022-09-06T22:40:49.200Z,10.44
2022-09-06T22:43:16.104Z,10.32
2022-09-06T22:45:47.513Z,10.05
2022-09-06T22:48:17.955Z,9.89
2022-09-06T22:50:46.018Z,9.87
2022-09-06T22:53:12.950Z,9.98
2022-09-06T22:55:39.616Z,10.11
2022-09-06T22:58:06.465Z,10.15
2022-09-06T23:00:36.065Z,10.12
2022-09-06T23:03:02.850Z,10.15
2022-09-06T23:05:31.061Z,10.01
2022-09-06T23:07:57.942Z,10.07
2022-09-06T23:10:24.519Z,9.95
2022-09-06T23:12:54.520Z,9.72
2022-09-06T23:15:21.302Z,9.67
2022-09-06T23:17:48.186Z,9.69
2022-09-06T23:20:14.816Z,9.77
2022-09-06T23:22:41.803Z,9.78
2022-09-06T23:25:08.899Z,9.85
2022-09-06T23:27:35.409Z,9.87
2022-09-06T23:30:04.453Z,9.82
2022-09-06T23:32:34.731Z,9.73
2022-09-06T23:35:01.293Z,9.67
2022-09-06T23:37:27.797Z,9.59
2022-09-06T23:39:54.433Z,9.62
2022-09-06T23:42:22.923Z,9.67
2022-09-06T23:44:54.394Z,9.60
2022-09-06T23:47:20.982Z,9.59
2022-09-06T23:49:47.496Z,9.52
2022-09-06T23:52:13.999Z,9.46
2022-09-06T23:54:40.600Z,9.41
2022-09-06T23:57:07.406Z,9.29
2022-09-06T23:59:35.904Z,9.24
